Time;durP1;ratioP1;P1;durP2;ratioP2;P2;SDS_P1;SDS_P2;PMS_P1;PMS_P2;Temp;Humidity;BMP_temperature;BMP_pressure;BME280_temperature;BME280_humidity;BME280_pressure;Samples;Min_cycle;Max_cycle;Signal;HPM_P1;HPM_P2
2021/11/16 00:00:28;;;;;;;51.33;27.02;;;7.20;99.90;;;;;;5110988;28;20486;-66
2021/11/16 00:02:55;;;;;;;56.38;28.48;;;7.20;99.90;;;;;;5110043;28;20035;-66
2021/11/16 00:05:22;;;;;;;61.13;28.92;;;7.10;99.90;;;;;;5111249;28;20142;-66
2021/11/16 00:07:52;;;;;;;58.33;29.00;;;7.10;99.90;;;;;;5109411;28;20146;-66
2021/11/16 00:10:19;;;;;;;52.95;27.80;;;7.10;99.90;;;;;;5105235;28;20044;-67
2021/11/16 00:12:46;;;;;;;57.33;27.08;;;7.10;99.90;;;;;;5111123;28;20537;-67
2021/11/16 00:15:14;;;;;;;53.85;26.80;;;7.10;99.90;;;;;;5111121;28;20039;-67
2021/11/16 00:17:41;;;;;;;60.35;29.45;;;7.10;99.90;;;;;;5110931;28;20116;-67
2021/11/16 00:20:11;;;;;;;57.00;29.50;;;7.10;99.90;;;;;;5110810;28;20067;-67
2021/11/16 00:22:41;;;;;;;58.67;27.90;;;7.10;99.90;;;;;;5092747;28;20055;-66
2021/11/16 00:27:43;;;;;;;61.05;28.65;;;7.10;99.90;;;;;;5110772;28;20067;-66
2021/11/16 00:30:11;;;;;;;56.05;29.60;;;7.10;99.90;;;;;;5095911;28;20154;-66
2021/11/16 00:32:39;;;;;;;58.28;28.00;;;7.20;99.90;;;;;;5092669;28;20446;-66
2021/11/16 00:35:07;;;;;;;58.42;28.42;;;7.10;99.90;;;;;;5110870;28;20043;-67
2021/11/16 00:37:34;;;;;;;54.22;27.75;;;7.10;99.90;;;;;;5110717;28;20045;-67
2021/11/16 00:40:06;;;;;;;68.43;30.55;;;7.10;99.90;;;;;;5109776;28;20122;-66
2021/11/16 00:42:34;;;;;;;57.83;28.35;;;7.10;99.90;;;;;;5097112;28;20134;-66
2021/11/16 00:45:03;;;;;;;59.75;28.05;;;7.10;99.90;;;;;;5110487;28;20039;-66
2021/11/16 00:47:31;;;;;;;58.25;29.58;;;7.10;99.90;;;;;;5110802;28;20048;-66
2021/11/16 00:49:58;;;;;;;59.20;29.15;;;7.10;99.90;;;;;;5092427;28;20059;-66
2021/11/16 00:52:25;;;;;;;55.75;28.80;;;7.10;99.90;;;;;;5110344;28;20035;-66
2021/11/16 00:54:53;;;;;;;59.10;28.63;;;7.10;99.90;;;;;;5110655;28;20059;-67
2021/11/16 00:57:21;;;;;;;58.15;29.33;;;7.10;99.90;;;;;;5110693;28;20050;-67
2021/11/16 00:59:48;;;;;;;58.65;29.48;;;7.10;99.90;;;;;;5092359;28;20123;-67
2021/11/16 01:02:16;;;;;;;59.92;28.65;;;7.20;99.90;;;;;;5067584;28;20154;-67
2021/11/16 01:04:51;;;;;;;58.33;29.45;;;7.10;99.90;;;;;;5108512;28;20105;-66
2021/11/16 01:07:19;;;;;;;58.60;29.52;;;7.10;99.90;;;;;;5098717;28;20048;-66
2021/11/16 01:09:48;;;;;;;59.00;28.42;;;7.10;99.90;;;;;;5083269;28;20075;-66
2021/11/16 01:12:17;;;;;;;52.53;26.65;;;7.10;99.90;;;;;;5110422;28;20039;-66
2021/11/16 01:14:46;;;;;;;56.45;28.60;;;7.00;99.90;;;;;;5110687;28;20111;-66
2021/11/16 01:17:14;;;;;;;59.90;29.45;;;7.10;99.90;;;;;;5110200;28;20046;-66
2021/11/16 01:19:42;;;;;;;61.03;30.85;;;7.10;99.90;;;;;;5110133;28;20046;-66
2021/11/16 01:22:10;;;;;;;54.20;27.10;;;7.10;99.90;;;;;;5094469;28;20477;-66
2021/11/16 01:24:37;;;;;;;60.95;30.02;;;7.10;99.90;;;;;;5095998;28;20049;-66
2021/11/16 01:27:07;;;;;;;59.15;28.42;;;7.10;99.90;;;;;;5114468;28;20039;-66
2021/11/16 01:29:37;;;;;;;56.75;28.80;;;7.10;99.90;;;;;;5114265;28;20039;-66
2021/11/16 01:32:09;;;;;;;60.67;29.23;;;7.10;99.90;;;;;;5113780;28;20039;-66
2021/11/16 01:34:36;;;;;;;63.65;30.77;;;7.10;99.90;;;;;;5114339;28;20039;-66
2021/11/16 01:37:06;;;;;;;60.97;28.15;;;7.10;99.90;;;;;;5096046;28;20047;-66
2021/11/16 01:39:33;;;;;;;55.20;29.05;;;7.10;99.90;;;;;;5113066;28;20040;-66
2021/11/16 01:42:01;;;;;;;58.20;30.13;;;7.10;99.90;;;;;;5094156;28;20493;-66
2021/11/16 01:44:29;;;;;;;61.45;29.75;;;7.10;99.90;;;;;;5112335;28;20059;-67
2021/11/16 01:46:56;;;;;;;60.65;29.88;;;7.10;99.90;;;;;;5094027;28;20043;-66
2021/11/16 01:49:23;;;;;;;57.83;28.25;;;7.00;99.90;;;;;;5110238;28;20043;-66
2021/11/16 01:51:50;;;;;;;59.22;29.08;;;7.00;99.90;;;;;;5102437;28;20414;-66
2021/11/16 01:54:18;;;;;;;60.60;29.85;;;7.00;99.90;;;;;;5100906;28;20572;-66
2021/11/16 01:56:46;;;;;;;61.78;29.08;;;7.00;99.90;;;;;;5111391;28;20047;-67
2021/11/16 01:59:18;;;;;;;57.30;28.95;;;7.10;99.90;;;;;;5109836;28;20055;-66
2021/11/16 02:01:48;;;;;;;58.28;28.52;;;7.10;99.90;;;;;;5106012;28;20040;-66
2021/11/16 02:04:16;;;;;;;62.08;30.25;;;7.00;99.90;;;;;;5113372;28;20459;-66
2021/11/16 02:06:44;;;;;;;54.90;29.25;;;7.00;99.90;;;;;;5100527;28;20102;-67
2021/11/16 02:09:15;;;;;;;55.70;28.83;;;7.00;99.90;;;;;;5100320;28;20139;-66
2021/11/16 02:11:43;;;;;;;59.33;29.23;;;7.00;99.90;;;;;;5099110;28;20130;-66
2021/11/16 02:14:13;;;;;;;56.78;28.80;;;7.10;99.90;;;;;;5113429;28;20045;-66
2021/11/16 02:16:42;;;;;;;57.20;28.23;;;7.00;99.90;;;;;;5113709;28;20031;-66
2021/11/16 02:19:12;;;;;;;54.50;27.33;;;7.00;99.90;;;;;;5103047;28;20040;-66
2021/11/16 02:21:40;;;;;;;60.17;29.38;;;7.10;99.90;;;;;;5113281;28;20493;-66
2021/11/16 02:24:08;;;;;;;57.30;26.60;;;7.00;99.90;;;;;;5113296;28;20093;-66
2021/11/16 02:26:36;;;;;;;55.15;28.58;;;7.00;99.90;;;;;;5092792;28;20048;-66
2021/11/16 02:29:05;;;;;;;56.58;27.10;;;7.10;99.90;;;;;;5101405;28;20069;-66
2021/11/16 02:31:33;;;;;;;55.13;28.50;;;7.10;99.90;;;;;;5112291;28;20410;-66
2021/11/16 02:34:03;;;;;;;56.35;28.02;;;7.10;99.90;;;;;;5113143;28;20043;-66
2021/11/16 02:36:32;;;;;;;56.28;28.45;;;7.10;99.90;;;;;;5113750;28;20050;-66
2021/11/16 02:39:03;;;;;;;57.47;28.33;;;7.10;99.90;;;;;;5098633;28;20070;-66
2021/11/16 02:41:31;;;;;;;64.35;29.13;;;7.00;99.90;;;;;;5112382;28;20050;-66
2021/11/16 02:44:00;;;;;;;61.28;28.85;;;7.00;99.90;;;;;;5094565;28;20413;-66
2021/11/16 02:46:28;;;;;;;55.75;26.92;;;7.00;99.90;;;;;;5112259;28;20051;-66
2021/11/16 02:48:55;;;;;;;58.60;28.50;;;7.00;99.90;;;;;;5074664;28;20044;-66
2021/11/16 02:51:23;;;;;;;57.88;28.23;;;7.00;99.90;;;;;;5103153;28;20044;-67
2021/11/16 02:53:50;;;;;;;54.92;27.52;;;7.00;99.90;;;;;;5112136;28;20047;-67
2021/11/16 02:56:18;;;;;;;52.75;26.40;;;7.00;99.90;;;;;;5112343;28;20039;-66
2021/11/16 02:58:45;;;;;;;55.03;28.23;;;7.00;99.90;;;;;;5112721;28;20036;-66
2021/11/16 03:01:17;;;;;;;61.03;30.52;;;7.00;99.90;;;;;;5112558;28;20046;-66
2021/11/16 03:03:45;;;;;;;57.30;27.05;;;7.00;99.90;;;;;;5102587;28;20383;-66
2021/11/16 03:06:13;;;;;;;57.67;28.80;;;7.00;99.90;;;;;;5100155;28;20047;-66
2021/11/16 03:08:42;;;;;;;56.20;27.27;;;7.00;99.90;;;;;;5112423;28;20076;-66
2021/11/16 03:11:11;;;;;;;57.97;28.27;;;7.10;99.90;;;;;;5110996;28;20398;-66
2021/11/16 03:13:40;;;;;;;57.22;28.05;;;7.00;99.90;;;;;;5076251;28;20063;-67
2021/11/16 03:16:11;;;;;;;52.72;27.15;;;7.00;99.90;;;;;;5107842;28;20047;-66
2021/11/16 03:18:39;;;;;;;55.00;27.97;;;7.00;99.90;;;;;;5072881;28;20048;-66
2021/11/16 03:21:11;;;;;;;54.60;28.17;;;6.90;99.90;;;;;;5094617;28;20407;-67
2021/11/16 03:23:41;;;;;;;58.22;28.40;;;7.00;99.90;;;;;;5099032;28;20046;-66
2021/11/16 03:26:09;;;;;;;52.15;27.77;;;6.90;99.90;;;;;;5102009;28;20347;-66
2021/11/16 03:28:38;;;;;;;56.50;27.73;;;6.90;99.90;;;;;;5090793;28;20042;-66
2021/11/16 03:31:19;;;;;;;55.90;26.92;;;6.90;99.90;;;;;;5090904;28;20040;-66
2021/11/16 03:33:49;;;;;;;57.05;28.75;;;6.90;99.90;;;;;;5091624;28;20040;-66
2021/11/16 03:36:19;;;;;;;57.28;28.30;;;7.00;99.90;;;;;;5101692;28;20051;-66
2021/11/16 03:38:47;;;;;;;56.85;28.50;;;7.00;99.90;;;;;;5105237;28;20032;-66
2021/11/16 03:41:15;;;;;;;52.38;27.10;;;7.00;99.90;;;;;;5105857;28;20031;-66
2021/11/16 03:43:43;;;;;;;56.40;26.88;;;7.00;99.90;;;;;;5094202;28;20044;-66
2021/11/16 03:46:11;;;;;;;55.75;28.23;;;7.00;99.90;;;;;;5074537;28;20747;-66
2021/11/16 03:48:38;;;;;;;55.42;28.17;;;7.00;99.90;;;;;;5097062;28;20097;-66
2021/11/16 03:51:06;;;;;;;62.42;28.75;;;7.00;99.90;;;;;;5093409;28;20379;-66
2021/11/16 03:53:34;;;;;;;59.65;29.85;;;7.00;99.90;;;;;;5099386;28;20067;-66
2021/11/16 03:56:01;;;;;;;57.35;27.55;;;6.90;99.90;;;;;;5088093;28;20359;-66
2021/11/16 03:58:28;;;;;;;53.28;26.90;;;6.90;99.90;;;;;;5101515;28;20050;-66
2021/11/16 04:00:59;;;;;;;59.60;27.13;;;7.00;99.90;;;;;;5070897;28;20086;-66
2021/11/16 04:03:31;;;;;;;61.67;27.65;;;7.00;99.90;;;;;;5086275;28;20071;-67
2021/11/16 04:05:59;;;;;;;;;;;6.90;99.90;;;;;;5096261;28;20044;-66
2021/11/16 04:08:27;;;;;;;60.40;27.85;;;7.00;99.90;;;;;;5094465;28;20386;-66
2021/11/16 04:10:54;;;;;;;55.38;27.63;;;6.90;99.90;;;;;;5091111;28;20115;-66
2021/11/16 04:13:22;;;;;;;59.28;28.63;;;7.00;99.90;;;;;;5072961;28;20127;-66
2021/11/16 04:15:50;;;;;;;57.85;28.50;;;6.90;99.90;;;;;;5091259;28;20059;-67
2021/11/16 04:18:19;;;;;;;53.50;27.63;;;7.00;99.90;;;;;;5094586;28;20052;-66
2021/11/16 04:20:49;;;;;;;52.50;26.02;;;7.00;99.90;;;;;;5099793;28;20038;-66
2021/11/16 04:23:17;;;;;;;54.63;26.95;;;6.90;99.90;;;;;;5107269;28;20051;-66
2021/11/16 04:25:45;;;;;;;63.22;30.92;;;6.90;99.90;;;;;;5099278;28;20031;-65
2021/11/16 04:28:14;;;;;;;56.00;28.35;;;6.90;99.90;;;;;;5092083;28;20040;-66
2021/11/16 04:30:43;;;;;;;59.08;30.88;;;7.00;99.90;;;;;;5082239;28;20040;-66
2021/11/16 04:33:15;;;;;;;59.65;29.00;;;6.90;99.90;;;;;;5089841;28;20048;-66
2021/11/16 04:35:42;;;;;;;63.13;30.23;;;6.90;99.90;;;;;;5090557;28;20040;-66
2021/11/16 04:38:13;;;;;;;64.43;32.75;;;6.90;99.90;;;;;;5092727;28;20043;-66
2021/11/16 04:40:42;;;;;;;61.47;30.60;;;6.90;99.90;;;;;;5093306;28;20404;-66
2021/11/16 04:43:18;;;;;;;65.07;30.88;;;6.90;99.90;;;;;;5089571;28;20410;-66
2021/11/16 04:45:50;;;;;;;59.95;30.77;;;6.90;99.90;;;;;;5082836;28;20051;-66
2021/11/16 04:48:45;;;;;;;60.20;29.58;;;6.90;99.90;;;;;;5090790;28;20090;-66
2021/11/16 04:59:34;;;;;;;63.95;28.90;;;6.90;99.90;;;;;;5108726;28;20413;-66
2021/11/16 05:04:51;;;;;;;62.28;30.33;;;6.80;99.90;;;;;;5105984;28;20042;-66
2021/11/16 05:07:21;;;;;;;63.67;31.00;;;6.80;99.90;;;;;;5104675;28;20130;-66
2021/11/16 05:09:55;;;;;;;61.60;31.90;;;6.80;99.90;;;;;;5103262;28;20051;-66
2021/11/16 05:12:24;;;;;;;59.80;30.00;;;6.80;99.90;;;;;;5105627;28;20044;-66
2021/11/16 05:14:53;;;;;;;64.88;31.55;;;6.80;99.90;;;;;;5104489;28;20044;-66
2021/11/16 05:17:20;;;;;;;63.28;30.60;;;6.90;99.90;;;;;;5093501;28;20044;-66
2021/11/16 05:19:48;;;;;;;64.65;28.98;;;6.80;99.90;;;;;;5095173;28;20043;-66
2021/11/16 05:22:15;;;;;;;61.50;30.58;;;6.80;99.90;;;;;;5088769;28;20059;-66
2021/11/16 05:24:43;;;;;;;62.30;30.08;;;6.80;99.90;;;;;;5102842;28;20048;-66
2021/11/16 05:27:10;;;;;;;61.90;31.65;;;6.80;99.90;;;;;;5088370;28;20047;-66
2021/11/16 05:29:37;;;;;;;61.97;31.55;;;6.80;99.90;;;;;;5108808;28;20044;-66
2021/11/16 05:32:05;;;;;;;64.03;31.80;;;6.80;99.90;;;;;;5099383;28;20044;-66
2021/11/16 05:34:32;;;;;;;69.55;31.67;;;6.80;99.90;;;;;;5088884;28;20048;-66
2021/11/16 05:37:00;;;;;;;64.55;30.75;;;6.80;99.90;;;;;;5101862;28;20044;-66
2021/11/16 05:39:27;;;;;;;67.03;31.23;;;6.90;99.90;;;;;;5100349;28;20048;-66
2021/11/16 05:41:54;;;;;;;53.20;28.88;;;6.80;99.90;;;;;;5093511;28;20399;-66
2021/11/16 05:44:22;;;;;;;60.88;30.23;;;6.80;99.90;;;;;;5072461;28;20036;-67
2021/11/16 05:46:49;;;;;;;58.67;29.08;;;6.80;99.90;;;;;;5106380;28;20417;-65
2021/11/16 05:49:16;;;;;;;66.00;30.33;;;6.70;99.90;;;;;;5088359;28;20035;-65
2021/11/16 05:51:44;;;;;;;60.72;28.20;;;6.70;99.90;;;;;;5109935;28;20043;-65
2021/11/16 05:54:20;;;;;;;66.07;29.70;;;6.70;99.90;;;;;;5105633;28;20036;-65
2021/11/16 05:56:47;;;;;;;61.45;29.13;;;6.70;99.90;;;;;;5100358;28;20044;-66
2021/11/16 05:59:14;;;;;;;61.67;30.75;;;6.60;99.90;;;;;;5109746;28;20482;-66
2021/11/16 06:01:43;;;;;;;63.92;31.77;;;6.70;99.90;;;;;;5110107;28;20039;-66
2021/11/16 06:04:11;;;;;;;58.75;29.85;;;6.70;99.90;;;;;;5084240;28;20066;-67
2021/11/16 06:06:40;;;;;;;65.80;32.35;;;6.70;99.90;;;;;;5103741;28;20065;-67
2021/11/16 06:09:12;;;;;;;74.30;35.47;;;6.60;99.90;;;;;;5107496;28;20080;-67
2021/11/16 06:11:39;;;;;;;61.50;29.30;;;6.70;99.90;;;;;;5106831;28;20449;-67
2021/11/16 06:14:06;;;;;;;62.15;30.77;;;6.70;99.90;;;;;;5090404;28;20058;-66
2021/11/16 06:16:34;;;;;;;64.40;30.02;;;6.60;99.90;;;;;;5102581;28;20044;-66
2021/11/16 06:19:06;;;;;;;63.17;29.40;;;6.60;99.90;;;;;;5110819;28;20107;-67
2021/11/16 06:21:34;;;;;;;60.03;29.52;;;6.60;99.90;;;;;;5106058;28;20562;-66
2021/11/16 06:24:02;;;;;;;67.85;30.55;;;6.60;99.90;;;;;;5113046;28;20107;-66
2021/11/16 06:26:32;;;;;;;62.13;30.77;;;6.60;99.90;;;;;;5105971;28;20069;-67
2021/11/16 06:29:03;;;;;;;65.72;30.10;;;6.60;99.90;;;;;;5109479;28;20143;-66
2021/11/16 06:31:30;;;;;;;64.00;29.38;;;6.60;99.90;;;;;;5099252;28;20058;-65
2021/11/16 06:33:59;;;;;;;61.10;30.05;;;6.60;99.90;;;;;;5105924;28;20044;-66
2021/11/16 06:36:33;;;;;;;70.13;32.17;;;6.60;99.90;;;;;;5112002;28;20040;-66
2021/11/16 06:39:08;;;;;;;63.22;30.10;;;6.60;99.90;;;;;;5113066;28;20032;-68
2021/11/16 06:41:37;;;;;;;67.15;30.88;;;6.60;99.90;;;;;;5087382;28;20044;-66
2021/11/16 06:44:06;;;;;;;67.30;30.77;;;6.60;99.90;;;;;;5086441;28;20047;-66
2021/11/16 06:46:34;;;;;;;67.25;31.95;;;6.60;99.90;;;;;;5096977;28;20522;-67
2021/11/16 06:49:03;;;;;;;61.00;29.83;;;6.60;99.90;;;;;;5073336;28;20504;-67
2021/11/16 06:51:37;;;;;;;65.80;32.03;;;6.60;99.90;;;;;;5110261;28;20043;-67
2021/11/16 06:54:13;;;;;;;68.30;31.95;;;6.60;99.90;;;;;;5109480;28;20431;-67
2021/11/16 06:56:42;;;;;;;67.05;32.35;;;6.60;99.90;;;;;;5082313;28;20051;-66
2021/11/16 06:59:09;;;;;;;65.15;31.05;;;6.70;99.90;;;;;;5102813;28;20046;-66
2021/11/16 07:01:37;;;;;;;71.60;29.88;;;6.70;99.90;;;;;;5110203;28;20044;-66
2021/11/16 07:04:10;;;;;;;60.35;29.73;;;6.70;99.90;;;;;;5098310;28;20046;-66
2021/11/16 07:06:44;;;;;;;66.50;31.55;;;6.70;99.90;;;;;;5085112;28;20047;-66
2021/11/16 07:09:14;;;;;;;61.10;30.50;;;6.70;99.90;;;;;;5109373;28;20039;-67
2021/11/16 07:11:46;;;;;;;59.95;28.92;;;6.70;99.90;;;;;;5109249;28;20491;-67
2021/11/16 07:14:20;;;;;;;65.05;30.48;;;6.70;99.90;;;;;;5112872;28;20110;-67
2021/11/16 07:16:53;;;;;;;64.90;30.60;;;6.70;99.90;;;;;;5103962;28;20038;-67
2021/11/16 07:19:48;;;;;;;60.78;30.30;;;6.80;99.90;;;;;;5104164;28;20046;-67
2021/11/16 07:22:19;;;;;;;62.78;29.38;;;6.80;99.90;;;;;;5104780;28;20368;-67
2021/11/16 07:24:53;;;;;;;63.03;30.73;;;6.80;99.90;;;;;;5098442;28;20428;-67
2021/11/16 07:27:22;;;;;;;61.45;29.10;;;6.80;99.90;;;;;;5103011;28;20494;-69
2021/11/16 07:29:59;;;;;;;59.42;28.98;;;6.80;99.90;;;;;;5101774;28;20118;-66
2021/11/16 07:32:49;;;;;;;56.83;27.90;;;6.80;99.90;;;;;;5110573;28;20035;-66
2021/11/16 07:35:23;;;;;;;61.65;28.50;;;6.90;99.90;;;;;;5099847;28;20048;-67
2021/11/16 07:37:57;;;;;;;63.45;30.13;;;6.90;99.90;;;;;;5092328;28;20040;-67
2021/11/16 07:40:27;;;;;;;60.30;29.38;;;7.00;99.90;;;;;;5105828;28;20040;-68
2021/11/16 07:42:57;;;;;;;61.55;28.90;;;7.00;99.90;;;;;;5106244;28;20051;-67
2021/11/16 07:45:40;;;;;;;57.60;28.35;;;7.00;99.90;;;;;;5091415;28;20043;-67
2021/11/16 07:48:10;;;;;;;59.50;28.50;;;7.10;99.90;;;;;;5107856;28;20715;-67
2021/11/16 07:50:42;;;;;;;59.10;29.65;;;7.10;99.90;;;;;;5108827;28;20414;-67
2021/11/16 07:53:27;;;;;;;57.72;28.48;;;7.20;99.90;;;;;;5107877;28;20442;-67
2021/11/16 07:56:30;;;;;;;60.33;28.17;;;7.30;99.90;;;;;;5077901;28;20048;-67
2021/11/16 07:59:03;;;;;;;51.72;27.63;;;7.40;99.90;;;;;;5021192;28;20042;-67
2021/11/16 08:04:31;;;;;;;59.83;30.20;;;7.40;99.90;;;;;;5021074;28;20055;-68
2021/11/16 08:07:21;;;;;;;58.55;29.33;;;7.40;99.90;;;;;;5022627;28;20412;-68
2021/11/16 08:09:51;;;;;;;60.25;29.38;;;7.50;99.90;;;;;;5011261;28;20053;-68
2021/11/16 08:12:55;;;;;;;56.38;27.98;;;7.50;99.90;;;;;;5026001;28;20049;-67
2021/11/16 08:15:15;;;;;;;64.25;30.65;;;7.50;99.90;;;;;;5012700;28;20045;-67
2021/11/16 08:17:44;;;;;;;52.35;26.60;;;7.60;99.90;;;;;;5018787;28;20137;-68
2021/11/16 08:20:14;;;;;;;59.85;28.48;;;7.70;99.90;;;;;;4995212;28;20631;-68
2021/11/16 08:22:44;;;;;;;52.88;27.23;;;7.70;99.90;;;;;;5025733;28;20053;-68
2021/11/16 08:25:11;;;;;;;60.45;29.95;;;7.80;99.90;;;;;;4995577;28;20160;-68
2021/11/16 08:27:43;;;;;;;58.17;28.45;;;7.90;99.90;;;;;;5018106;28;20054;-68
2021/11/16 08:30:14;;;;;;;58.15;28.60;;;7.90;99.90;;;;;;5017393;28;20499;-68
2021/11/16 08:32:44;;;;;;;58.05;28.00;;;8.00;99.90;;;;;;5056416;28;20053;-68
2021/11/16 08:35:17;;;;;;;58.75;28.67;;;8.10;99.90;;;;;;5106876;28;20039;-67
2021/11/16 08:37:46;;;;;;;56.97;29.58;;;8.20;99.90;;;;;;5093988;28;20473;-67
2021/11/16 08:40:19;;;;;;;65.40;31.13;;;8.20;99.90;;;;;;5099084;28;20040;-67
2021/11/16 08:42:53;;;;;;;60.15;29.33;;;8.10;99.90;;;;;;5108086;28;20513;-67
2021/11/16 08:45:25;;;;;;;53.92;27.65;;;8.10;99.90;;;;;;5093155;28;20044;-67
2021/11/16 08:48:15;;;;;;;55.40;27.25;;;8.10;99.90;;;;;;5077038;28;20048;-67
2021/11/16 08:50:52;;;;;;;56.88;27.02;;;8.20;99.90;;;;;;5091554;28;20470;-67
2021/11/16 08:53:32;;;;;;;55.88;28.52;;;8.20;99.90;;;;;;5071764;28;20052;-67
2021/11/16 08:56:04;;;;;;;57.13;29.17;;;8.30;99.90;;;;;;5110134;28;20044;-68
2021/11/16 08:58:32;;;;;;;52.60;27.15;;;8.40;99.90;;;;;;5111082;28;20051;-68
2021/11/16 09:01:06;;;;;;;53.08;27.52;;;8.50;99.90;;;;;;5107052;28;20033;-67
2021/11/16 09:03:42;;;;;;;58.67;28.80;;;8.70;99.90;;;;;;5100103;28;20058;-68
2021/11/16 09:06:22;;;;;;;56.17;29.50;;;8.70;99.90;;;;;;5076960;28;20055;-67
2021/11/16 09:09:06;;;;;;;54.47;28.63;;;8.70;99.90;;;;;;5087262;28;20040;-68
2021/11/16 09:11:33;;;;;;;60.72;27.67;;;8.70;99.90;;;;;;5106373;28;20149;-68
2021/11/16 09:14:11;;;;;;;52.05;27.23;;;8.60;99.90;;;;;;5064168;28;20134;-68
2021/11/16 09:16:41;;;;;;;49.40;24.65;;;8.60;99.90;;;;;;5103251;28;20093;-67
2021/11/16 09:19:25;;;;;;;54.55;28.50;;;8.50;99.90;;;;;;5089534;28;20076;-67
2021/11/16 09:21:52;;;;;;;49.75;26.17;;;8.60;99.90;;;;;;5106502;28;20398;-68
2021/11/16 09:24:20;;;;;;;54.17;27.38;;;8.60;99.90;;;;;;5097173;28;20041;-67
2021/11/16 09:29:21;;;;;;;46.03;25.55;;;8.70;99.90;;;;;;5055205;28;20056;-66
2021/11/16 09:31:50;;;;;;;47.08;24.33;;;8.80;99.90;;;;;;5098300;28;20048;-67
2021/11/16 09:34:17;;;;;;;52.25;27.27;;;8.80;99.90;;;;;;5099726;28;20049;-66
2021/11/16 09:37:07;;;;;;;51.17;25.42;;;8.80;99.90;;;;;;5095017;28;20043;-66
2021/11/16 09:39:51;;;;;;;46.88;24.73;;;8.80;99.90;;;;;;5080170;28;20039;-67
2021/11/16 09:42:32;;;;;;;50.60;25.45;;;8.90;99.90;;;;;;5096420;28;20397;-66
2021/11/16 09:45:25;;;;;;;57.60;27.58;;;8.90;99.90;;;;;;5092346;28;20046;-68
2021/11/16 09:47:54;;;;;;;51.50;26.58;;;8.90;99.90;;;;;;5095332;28;20487;-68
2021/11/16 09:50:25;;;;;;;48.05;24.63;;;9.00;99.90;;;;;;5097390;28;20044;-68
2021/11/16 09:52:55;;;;;;;46.47;24.20;;;9.10;99.90;;;;;;5098106;28;20466;-68
2021/11/16 09:55:33;;;;;;;51.15;25.45;;;9.10;99.90;;;;;;5108436;28;20048;-68
2021/11/16 09:58:05;;;;;;;53.70;26.55;;;9.10;99.90;;;;;;5114029;28;20039;-68
2021/11/16 10:00:34;;;;;;;;;;;9.10;99.90;;;;;;5113156;28;20068;-68
2021/11/16 10:03:11;;;;;;;47.75;24.42;;;9.00;99.90;;;;;;5095404;28;20251;-68
2021/11/16 10:06:00;;;;;;;46.70;25.50;;;9.00;99.90;;;;;;5102011;28;20071;-68
2021/11/16 10:08:28;;;;;;;46.67;25.63;;;9.10;99.90;;;;;;5105159;28;20050;-68
2021/11/16 10:10:58;;;;;;;48.42;24.52;;;9.10;99.90;;;;;;5103893;28;20226;-68
2021/11/16 10:13:28;;;;;;;48.42;24.48;;;9.10;99.90;;;;;;5093800;28;20424;-68
2021/11/16 10:15:58;;;;;;;47.90;25.25;;;9.10;99.90;;;;;;5105993;28;20387;-68
2021/11/16 10:18:27;;;;;;;49.97;26.13;;;9.20;99.90;;;;;;5100757;28;20062;-68
2021/11/16 10:20:55;;;;;;;43.72;23.40;;;9.20;99.90;;;;;;5099787;28;20048;-68
2021/11/16 10:23:36;;;;;;;45.03;24.38;;;9.30;99.90;;;;;;5109392;28;20413;-68
2021/11/16 10:26:05;;;;;;;52.63;26.33;;;9.30;99.90;;;;;;5101541;28;20071;-68
2021/11/16 10:28:37;;;;;;;50.45;25.67;;;9.30;99.90;;;;;;5094291;28;20051;-68
2021/11/16 10:31:05;;;;;;;46.88;24.98;;;9.40;99.90;;;;;;5093179;28;20050;-67
2021/11/16 10:33:50;;;;;;;45.33;25.63;;;9.50;99.90;;;;;;5074845;28;20040;-67
2021/11/16 10:36:18;;;;;;;41.22;21.90;;;9.50;99.90;;;;;;5091791;28;20174;-67
2021/11/16 10:38:50;;;;;;;44.15;23.75;;;9.50;99.90;;;;;;5092646;28;20044;-67
2021/11/16 10:41:21;;;;;;;40.13;22.02;;;9.50;99.90;;;;;;5096726;28;20176;-67
2021/11/16 10:43:56;;;;;;;44.42;24.13;;;9.50;99.90;;;;;;5092784;28;20032;-67
2021/11/16 10:46:30;;;;;;;44.03;24.08;;;9.50;99.90;;;;;;5092927;28;20486;-67
2021/11/16 10:49:02;;;;;;;42.03;23.20;;;9.40;99.90;;;;;;5100606;28;20371;-68
2021/11/16 10:51:31;;;;;;;42.58;22.92;;;9.40;99.90;;;;;;5074299;28;20071;-67
2021/11/16 10:53:59;;;;;;;39.65;21.83;;;9.40;99.90;;;;;;5097865;28;20043;-67
2021/11/16 10:56:32;;;;;;;41.50;22.95;;;9.30;99.90;;;;;;5094250;28;20044;-67
2021/11/16 10:59:23;;;;;;;45.97;24.50;;;9.30;99.90;;;;;;5112231;28;20099;-67
2021/11/16 11:01:53;;;;;;;47.35;25.98;;;9.30;99.90;;;;;;5089895;28;20458;-67
2021/11/16 11:04:25;;;;;;;50.65;25.70;;;9.20;99.90;;;;;;5092949;28;20063;-67
2021/11/16 11:06:53;;;;;;;42.42;24.45;;;9.20;99.90;;;;;;5085016;28;20434;-67
2021/11/16 11:09:23;;;;;;;40.80;22.38;;;9.10;99.90;;;;;;5108930;28;20044;-67
2021/11/16 11:11:54;;;;;;;47.03;23.58;;;9.10;99.90;;;;;;5102992;28;20498;-67
2021/11/16 11:14:38;;;;;;;41.30;22.70;;;9.10;99.90;;;;;;5091246;28;20043;-67
2021/11/16 11:17:09;;;;;;;43.33;22.73;;;9.10;99.90;;;;;;5072809;28;20028;-67
2021/11/16 11:19:40;;;;;;;41.10;22.92;;;9.10;99.90;;;;;;5095672;28;20046;-67
2021/11/16 11:22:22;;;;;;;39.40;21.67;;;9.10;99.90;;;;;;5073831;28;20040;-68
2021/11/16 11:28:11;;;;;;;39.88;22.10;;;9.20;99.90;;;;;;5077964;28;20456;-67
2021/11/16 11:30:39;;;;;;;37.95;20.70;;;9.20;99.90;;;;;;5089357;28;20477;-68
2021/11/16 11:33:07;;;;;;;39.70;22.50;;;9.20;99.90;;;;;;5090426;28;20121;-67
2021/11/16 11:35:35;;;;;;;39.80;22.20;;;9.20;99.90;;;;;;5075316;28;20044;-67
2021/11/16 11:38:13;;;;;;;41.10;23.08;;;9.10;99.90;;;;;;5089531;28;20147;-67
2021/11/16 11:40:41;;;;;;;38.70;21.63;;;9.10;99.90;;;;;;5093112;28;20125;-67
2021/11/16 11:43:15;;;;;;;39.60;20.92;;;9.10;99.90;;;;;;5092377;28;20071;-67
2021/11/16 11:45:46;;;;;;;38.17;21.10;;;9.10;99.90;;;;;;5074774;28;20514;-68
2021/11/16 11:48:20;;;;;;;36.28;20.50;;;9.10;99.90;;;;;;5103056;28;20052;-67
2021/11/16 11:50:51;;;;;;;41.35;21.88;;;9.10;99.90;;;;;;5073536;28;20036;-67
2021/11/16 11:53:27;;;;;;;38.42;20.90;;;9.10;99.90;;;;;;5102469;28;20498;-67
2021/11/16 11:56:00;;;;;;;39.05;21.75;;;9.10;99.90;;;;;;5087372;28;20035;-67
2021/11/16 11:58:32;;;;;;;43.15;22.90;;;9.10;99.90;;;;;;5086310;28;20406;-67
2021/11/16 12:01:06;;;;;;;36.63;21.70;;;9.10;99.90;;;;;;5082014;28;20043;-67
2021/11/16 12:03:36;;;;;;;45.35;21.98;;;9.10;99.90;;;;;;5094082;28;20040;-67
2021/11/16 12:06:04;;;;;;;37.03;20.40;;;9.00;99.90;;;;;;5085823;28;20101;-67
2021/11/16 12:08:32;;;;;;;43.80;23.17;;;9.00;99.90;;;;;;5093916;28;20087;-67
2021/11/16 12:10:59;;;;;;;38.28;21.17;;;9.00;99.90;;;;;;5091162;28;20036;-68
2021/11/16 12:13:30;;;;;;;38.80;21.48;;;9.00;99.90;;;;;;5072856;28;20044;-67
2021/11/16 12:16:36;;;;;;;34.72;19.75;;;9.00;99.90;;;;;;5090856;28;20044;-68
2021/11/16 12:19:09;;;;;;;36.22;20.70;;;9.10;99.90;;;;;;5027617;28;20041;-68
2021/11/16 12:21:45;;;;;;;34.88;20.38;;;9.00;99.90;;;;;;5044353;28;20506;-67
2021/11/16 12:24:15;;;;;;;35.47;19.08;;;9.00;99.90;;;;;;5050619;28;20160;-67
2021/11/16 12:27:06;;;;;;;38.97;21.70;;;9.00;99.90;;;;;;5045062;28;20159;-68
2021/11/16 12:29:40;;;;;;;34.88;20.20;;;9.00;99.90;;;;;;5056613;28;20048;-67
2021/11/16 12:32:21;;;;;;;37.65;20.88;;;9.00;99.90;;;;;;5046836;28;20532;-68
2021/11/16 12:35:03;;;;;;;38.57;20.43;;;9.00;99.90;;;;;;5054241;28;20526;-67
2021/11/16 12:37:38;;;;;;;41.80;22.05;;;9.00;99.90;;;;;;5035631;28;20055;-66
2021/11/16 12:40:39;;;;;;;36.25;21.15;;;9.00;99.90;;;;;;5047974;28;20459;-66
2021/11/16 12:43:12;;;;;;;36.92;20.60;;;9.00;99.90;;;;;;5025832;28;20065;-67
2021/11/16 12:45:51;;;;;;;37.95;20.30;;;9.00;99.90;;;;;;5046428;28;20055;-67
2021/11/16 12:48:38;;;;;;;33.20;19.42;;;9.00;99.90;;;;;;5030180;28;20068;-67
2021/11/16 12:51:14;;;;;;;33.63;19.08;;;9.00;99.90;;;;;;5040911;28;20506;-66
2021/11/16 12:54:05;;;;;;;36.17;20.30;;;8.90;99.90;;;;;;5067524;28;20263;-67
2021/11/16 12:56:42;;;;;;;41.42;22.35;;;8.90;99.90;;;;;;5096979;28;20035;-66
2021/11/16 12:59:43;;;;;;;32.92;20.17;;;8.90;99.90;;;;;;5110810;28;20126;-67
2021/11/16 13:02:47;;;;;;;44.83;23.13;;;8.80;99.90;;;;;;5100337;28;20036;-67
2021/11/16 13:05:36;;;;;;;33.30;18.67;;;8.80;99.90;;;;;;5098486;28;20543;-67
2021/11/16 13:08:06;;;;;;;38.20;20.10;;;8.80;99.90;;;;;;5095085;28;20047;-67
2021/11/16 13:10:42;;;;;;;35.15;20.15;;;8.70;99.90;;;;;;5089675;28;20050;-67
2021/11/16 13:13:19;;;;;;;35.45;19.02;;;8.70;99.90;;;;;;5091433;28;20036;-67
2021/11/16 13:15:54;;;;;;;37.80;20.33;;;8.70;99.90;;;;;;5089828;28;20127;-67
2021/11/16 13:18:21;;;;;;;36.50;19.88;;;8.60;99.90;;;;;;5075717;28;20074;-67
2021/11/16 13:20:57;;;;;;;36.60;21.40;;;8.60;99.90;;;;;;5108432;28;20098;-67
2021/11/16 13:23:31;;;;;;;37.20;20.20;;;8.60;99.90;;;;;;5100303;28;20032;-67